sensor_id;sensor_type;location;lat;lon;timestamp;temperature;humidity
7648;DHT22;3866;48.020;11.720;2022-07-23T00:00:19;22.50;99.90
7648;DHT22;3866;48.020;11.720;2022-07-23T00:02:46;22.30;99.90
7648;DHT22;3866;48.020;11.720;2022-07-23T00:05:13;22.20;99.90
7648;DHT22;3866;48.020;11.720;2022-07-23T00:07:40;22.00;99.90
7648;DHT22;3866;48.020;11.720;2022-07-23T00:10:09;22.00;99.90
7648;DHT22;3866;48.020;11.720;2022-07-23T00:12:37;22.00;99.90
7648;DHT22;3866;48.020;11.720;2022-07-23T00:15:04;22.10;99.90
7648;DHT22;3866;48.020;11.720;2022-07-23T00:17:32;22.10;99.90
7648;DHT22;3866;48.020;11.720;2022-07-23T00:19:59;22.20;99.90
7648;DHT22;3866;48.020;11.720;2022-07-23T00:22:26;22.10;99.90
7648;DHT22;3866;48.020;11.720;2022-07-23T00:24:54;22.00;99.90
7648;DHT22;3866;48.020;11.720;2022-07-23T00:27:23;22.00;99.90
7648;DHT22;3866;48.020;11.720;2022-07-23T00:29:50;22.10;99.90
7648;DHT22;3866;48.020;11.720;2022-07-23T00:32:17;21.90;99.90
7648;DHT22;3866;48.020;11.720;2022-07-23T00:34:43;21.80;99.90
7648;DHT22;3866;48.020;11.720;2022-07-23T00:37:10;21.70;99.90
7648;DHT22;3866;48.020;11.720;2022-07-23T00:39:37;21.60;99.90
7648;DHT22;3866;48.020;11.720;2022-07-23T00:42:04;21.60;99.90
7648;DHT22;3866;48.020;11.720;2022-07-23T00:44:33;21.70;99.90
7648;DHT22;3866;48.020;11.720;2022-07-23T00:46:59;21.70;99.90
7648;DHT22;3866;48.020;11.720;2022-07-23T00:49:28;21.70;99.90
7648;DHT22;3866;48.020;11.720;2022-07-23T00:51:56;21.70;99.90
7648;DHT22;3866;48.020;11.720;2022-07-23T00:54:24;21.80;99.90
7648;DHT22;3866;48.020;11.720;2022-07-23T00:56:52;21.80;99.90
7648;DHT22;3866;48.020;11.720;2022-07-23T00:59:19;21.80;99.90
7648;DHT22;3866;48.020;11.720;2022-07-23T01:01:47;21.80;99.90
7648;DHT22;3866;48.020;11.720;2022-07-23T01:04:14;21.80;99.90
7648;DHT22;3866;48.020;11.720;2022-07-23T01:06:43;21.80;99.90
7648;DHT22;3866;48.020;11.720;2022-07-23T01:09:10;21.80;99.90
7648;DHT22;3866;48.020;11.720;2022-07-23T01:11:38;21.80;99.90
7648;DHT22;3866;48.020;11.720;2022-07-23T01:14:09;21.70;99.90
7648;DHT22;3866;48.020;11.720;2022-07-23T01:16:40;21.70;99.90
7648;DHT22;3866;48.020;11.720;2022-07-23T01:19:09;21.80;99.90
7648;DHT22;3866;48.020;11.720;2022-07-23T01:21:38;21.80;99.90
7648;DHT22;3866;48.020;11.720;2022-07-23T01:24:07;21.80;99.90
7648;DHT22;3866;48.020;11.720;2022-07-23T01:26:34;21.90;99.90
7648;DHT22;3866;48.020;11.720;2022-07-23T01:29:01;22.00;99.90
7648;DHT22;3866;48.020;11.720;2022-07-23T01:31:28;22.10;99.90
7648;DHT22;3866;48.020;11.720;2022-07-23T01:33:55;22.20;99.90
7648;DHT22;3866;48.020;11.720;2022-07-23T01:36:22;22.30;99.90
7648;DHT22;3866;48.020;11.720;2022-07-23T01:38:49;22.30;99.90
7648;DHT22;3866;48.020;11.720;2022-07-23T01:41:17;22.30;99.90
7648;DHT22;3866;48.020;11.720;2022-07-23T01:43:44;22.20;99.90
7648;DHT22;3866;48.020;11.720;2022-07-23T01:46:12;22.10;99.90
7648;DHT22;3866;48.020;11.720;2022-07-23T01:48:39;21.90;99.90
7648;DHT22;3866;48.020;11.720;2022-07-23T01:51:06;21.90;99.90
7648;DHT22;3866;48.020;11.720;2022-07-23T01:53:33;21.80;99.90
7648;DHT22;3866;48.020;11.720;2022-07-23T01:56:00;21.90;99.90
7648;DHT22;3866;48.020;11.720;2022-07-23T01:58:29;21.80;99.90
7648;DHT22;3866;48.020;11.720;2022-07-23T02:00:56;21.60;99.90
7648;DHT22;3866;48.020;11.720;2022-07-23T02:03:23;21.50;99.90
7648;DHT22;3866;48.020;11.720;2022-07-23T02:05:50;21.40;99.90
7648;DHT22;3866;48.020;11.720;2022-07-23T02:08:17;21.40;99.90
7648;DHT22;3866;48.020;11.720;2022-07-23T02:10:44;21.40;99.90
7648;DHT22;3866;48.020;11.720;2022-07-23T02:13:11;21.30;99.90
7648;DHT22;3866;48.020;11.720;2022-07-23T02:15:40;21.10;99.90
7648;DHT22;3866;48.020;11.720;2022-07-23T02:18:07;21.20;99.90
7648;DHT22;3866;48.020;11.720;2022-07-23T02:20:33;21.10;99.90
7648;DHT22;3866;48.020;11.720;2022-07-23T02:23:04;21.10;99.90
7648;DHT22;3866;48.020;11.720;2022-07-23T02:25:31;21.00;99.90
7648;DHT22;3866;48.020;11.720;2022-07-23T02:27:58;21.10;99.90
7648;DHT22;3866;48.020;11.720;2022-07-23T02:30:25;21.20;99.90
7648;DHT22;3866;48.020;11.720;2022-07-23T02:32:53;21.20;99.90
7648;DHT22;3866;48.020;11.720;2022-07-23T02:35:20;21.10;99.90
7648;DHT22;3866;48.020;11.720;2022-07-23T02:37:47;21.10;99.90
7648;DHT22;3866;48.020;11.720;2022-07-23T02:40:14;21.10;99.90
7648;DHT22;3866;48.020;11.720;2022-07-23T02:42:41;21.00;99.90
7648;DHT22;3866;48.020;11.720;2022-07-23T02:45:09;20.90;99.90
7648;DHT22;3866;48.020;11.720;2022-07-23T02:47:36;20.90;99.90
7648;DHT22;3866;48.020;11.720;2022-07-23T02:50:05;20.90;99.90
7648;DHT22;3866;48.020;11.720;2022-07-23T02:52:32;20.80;99.90
7648;DHT22;3866;48.020;11.720;2022-07-23T02:54:59;20.80;99.90
7648;DHT22;3866;48.020;11.720;2022-07-23T02:57:26;20.80;99.90
7648;DHT22;3866;48.020;11.720;2022-07-23T02:59:53;20.70;99.90
7648;DHT22;3866;48.020;11.720;2022-07-23T03:02:20;20.70;99.90
7648;DHT22;3866;48.020;11.720;2022-07-23T03:04:47;20.60;99.90
7648;DHT22;3866;48.020;11.720;2022-07-23T03:07:16;20.60;99.90
7648;DHT22;3866;48.020;11.720;2022-07-23T03:09:42;20.60;99.90
7648;DHT22;3866;48.020;11.720;2022-07-23T03:12:09;20.70;99.90
7648;DHT22;3866;48.020;11.720;2022-07-23T03:14:36;20.80;99.90
7648;DHT22;3866;48.020;11.720;2022-07-23T03:17:03;20.80;99.90
7648;DHT22;3866;48.020;11.720;2022-07-23T03:19:30;20.80;99.90
7648;DHT22;3866;48.020;11.720;2022-07-23T03:21:57;20.60;99.90
7648;DHT22;3866;48.020;11.720;2022-07-23T03:24:25;20.60;99.90
7648;DHT22;3866;48.020;11.720;2022-07-23T03:27:13;20.50;99.90
7648;DHT22;3866;48.020;11.720;2022-07-23T03:29:39;20.40;99.90
7648;DHT22;3866;48.020;11.720;2022-07-23T03:32:07;20.40;99.90
7648;DHT22;3866;48.020;11.720;2022-07-23T03:34:33;20.40;99.90
7648;DHT22;3866;48.020;11.720;2022-07-23T03:37:00;20.40;99.90
7648;DHT22;3866;48.020;11.720;2022-07-23T03:39:29;20.40;99.90
7648;DHT22;3866;48.020;11.720;2022-07-23T03:41:56;20.30;99.90
7648;DHT22;3866;48.020;11.720;2022-07-23T03:44:23;20.30;99.90
7648;DHT22;3866;48.020;11.720;2022-07-23T03:46:50;20.30;99.90
7648;DHT22;3866;48.020;11.720;2022-07-23T03:49:17;20.20;99.90
7648;DHT22;3866;48.020;11.720;2022-07-23T03:51:44;20.20;99.90
7648;DHT22;3866;48.020;11.720;2022-07-23T03:54:12;20.30;99.90
7648;DHT22;3866;48.020;11.720;2022-07-23T03:56:40;20.30;99.90
7648;DHT22;3866;48.020;11.720;2022-07-23T03:59:08;20.30;99.90
7648;DHT22;3866;48.020;11.720;2022-07-23T04:01:35;20.20;99.90
7648;DHT22;3866;48.020;11.720;2022-07-23T04:04:02;20.20;99.90
7648;DHT22;3866;48.020;11.720;2022-07-23T04:06:29;20.30;99.90
7648;DHT22;3866;48.020;11.720;2022-07-23T04:08:57;20.20;99.90
7648;DHT22;3866;48.020;11.720;2022-07-23T04:11:25;20.30;99.90
7648;DHT22;3866;48.020;11.720;2022-07-23T04:13:53;20.20;99.90
7648;DHT22;3866;48.020;11.720;2022-07-23T04:16:20;20.20;99.90
7648;DHT22;3866;48.020;11.720;2022-07-23T04:18:46;20.20;99.90
7648;DHT22;3866;48.020;11.720;2022-07-23T04:21:13;20.30;99.90
7648;DHT22;3866;48.020;11.720;2022-07-23T04:23:40;20.40;99.90
7648;DHT22;3866;48.020;11.720;2022-07-23T04:26:07;20.40;99.90
7648;DHT22;3866;48.020;11.720;2022-07-23T04:28:34;20.40;99.90
7648;DHT22;3866;48.020;11.720;2022-07-23T04:31:02;20.50;99.90
7648;DHT22;3866;48.020;11.720;2022-07-23T04:33:29;20.60;99.90
7648;DHT22;3866;48.020;11.720;2022-07-23T04:35:56;20.60;99.90
7648;DHT22;3866;48.020;11.720;2022-07-23T04:38:23;20.70;99.90
7648;DHT22;3866;48.020;11.720;2022-07-23T04:40:50;20.70;99.90
7648;DHT22;3866;48.020;11.720;2022-07-23T04:43:17;20.60;99.90
7648;DHT22;3866;48.020;11.720;2022-07-23T04:45:44;20.80;99.90
7648;DHT22;3866;48.020;11.720;2022-07-23T04:48:12;20.90;99.90
7648;DHT22;3866;48.020;11.720;2022-07-23T04:50:39;21.00;99.90
7648;DHT22;3866;48.020;11.720;2022-07-23T04:53:05;20.90;99.90
7648;DHT22;3866;48.020;11.720;2022-07-23T04:55:32;20.90;99.90
7648;DHT22;3866;48.020;11.720;2022-07-23T04:57:59;21.20;99.90
7648;DHT22;3866;48.020;11.720;2022-07-23T05:00:26;21.20;99.90
7648;DHT22;3866;48.020;11.720;2022-07-23T05:02:53;21.40;99.90
7648;DHT22;3866;48.020;11.720;2022-07-23T05:05:21;21.50;99.90
7648;DHT22;3866;48.020;11.720;2022-07-23T05:07:48;21.30;99.90
7648;DHT22;3866;48.020;11.720;2022-07-23T05:10:15;21.10;99.90
7648;DHT22;3866;48.020;11.720;2022-07-23T05:12:42;21.10;99.90
7648;DHT22;3866;48.020;11.720;2022-07-23T05:15:09;21.10;99.90
7648;DHT22;3866;48.020;11.720;2022-07-23T05:17:36;21.10;99.90
7648;DHT22;3866;48.020;11.720;2022-07-23T05:20:03;21.30;99.90
7648;DHT22;3866;48.020;11.720;2022-07-23T05:22:32;21.30;99.90
7648;DHT22;3866;48.020;11.720;2022-07-23T05:24:59;21.20;99.90
7648;DHT22;3866;48.020;11.720;2022-07-23T05:27:26;21.20;99.90
7648;DHT22;3866;48.020;11.720;2022-07-23T05:29:53;21.10;99.90
7648;DHT22;3866;48.020;11.720;2022-07-23T05:32:20;21.00;99.90
7648;DHT22;3866;48.020;11.720;2022-07-23T05:34:47;20.90;99.90
7648;DHT22;3866;48.020;11.720;2022-07-23T05:37:14;20.80;99.90
7648;DHT22;3866;48.020;11.720;2022-07-23T05:39:42;20.70;99.90
7648;DHT22;3866;48.020;11.720;2022-07-23T05:42:09;21.00;99.90
7648;DHT22;3866;48.020;11.720;2022-07-23T05:44:36;20.90;99.90
7648;DHT22;3866;48.020;11.720;2022-07-23T05:47:03;20.90;99.90
7648;DHT22;3866;48.020;11.720;2022-07-23T05:49:30;20.90;99.90
7648;DHT22;3866;48.020;11.720;2022-07-23T05:51:57;20.90;99.90
7648;DHT22;3866;48.020;11.720;2022-07-23T05:54:24;21.00;99.90
7648;DHT22;3866;48.020;11.720;2022-07-23T05:56:52;20.90;99.90
7648;DHT22;3866;48.020;11.720;2022-07-23T05:59:19;20.90;99.90
7648;DHT22;3866;48.020;11.720;2022-07-23T06:01:46;20.90;99.90
7648;DHT22;3866;48.020;11.720;2022-07-23T06:04:13;20.90;99.90
7648;DHT22;3866;48.020;11.720;2022-07-23T06:06:40;21.10;99.90
7648;DHT22;3866;48.020;11.720;2022-07-23T06:09:07;21.10;99.90
7648;DHT22;3866;48.020;11.720;2022-07-23T06:11:33;21.10;99.90
7648;DHT22;3866;48.020;11.720;2022-07-23T06:14:02;21.00;99.90
7648;DHT22;3866;48.020;11.720;2022-07-23T06:16:29;21.00;99.90
7648;DHT22;3866;48.020;11.720;2022-07-23T06:18:56;21.00;99.90
7648;DHT22;3866;48.020;11.720;2022-07-23T06:21:23;20.90;99.90
7648;DHT22;3866;48.020;11.720;2022-07-23T06:23:50;20.90;99.90
7648;DHT22;3866;48.020;11.720;2022-07-23T06:26:17;21.00;99.90
7648;DHT22;3866;48.020;11.720;2022-07-23T06:28:43;20.90;99.90
7648;DHT22;3866;48.020;11.720;2022-07-23T06:31:12;20.80;99.90
7648;DHT22;3866;48.020;11.720;2022-07-23T06:33:39;20.90;99.90
7648;DHT22;3866;48.020;11.720;2022-07-23T06:36:06;20.90;99.90
7648;DHT22;3866;48.020;11.720;2022-07-23T06:38:33;21.00;99.90
7648;DHT22;3866;48.020;11.720;2022-07-23T06:41:00;21.20;99.90
7648;DHT22;3866;48.020;11.720;2022-07-23T06:43:27;21.10;99.90
7648;DHT22;3866;48.020;11.720;2022-07-23T06:45:56;20.80;99.90
7648;DHT22;3866;48.020;11.720;2022-07-23T06:48:24;20.60;99.90
7648;DHT22;3866;48.020;11.720;2022-07-23T06:50:51;20.60;99.90
7648;DHT22;3866;48.020;11.720;2022-07-23T06:53:18;20.50;99.90
7648;DHT22;3866;48.020;11.720;2022-07-23T06:55:45;20.30;99.90
7648;DHT22;3866;48.020;11.720;2022-07-23T06:58:13;20.30;99.90
7648;DHT22;3866;48.020;11.720;2022-07-23T07:00:41;20.50;99.90
7648;DHT22;3866;48.020;11.720;2022-07-23T07:03:07;20.40;99.90
7648;DHT22;3866;48.020;11.720;2022-07-23T07:05:36;20.50;99.90
7648;DHT22;3866;48.020;11.720;2022-07-23T07:08:05;20.60;99.90
7648;DHT22;3866;48.020;11.720;2022-07-23T07:10:32;20.70;99.90
7648;DHT22;3866;48.020;11.720;2022-07-23T07:12:59;20.80;99.90
7648;DHT22;3866;48.020;11.720;2022-07-23T07:15:26;20.80;99.90
7648;DHT22;3866;48.020;11.720;2022-07-23T07:17:53;20.80;99.90
7648;DHT22;3866;48.020;11.720;2022-07-23T07:20:20;20.90;99.90
7648;DHT22;3866;48.020;11.720;2022-07-23T07:22:48;21.10;99.90
7648;DHT22;3866;48.020;11.720;2022-07-23T07:25:15;21.10;99.90
7648;DHT22;3866;48.020;11.720;2022-07-23T07:27:42;21.20;99.90
7648;DHT22;3866;48.020;11.720;2022-07-23T07:30:11;21.30;99.90
7648;DHT22;3866;48.020;11.720;2022-07-23T07:32:39;21.30;99.90
7648;DHT22;3866;48.020;11.720;2022-07-23T07:35:07;21.40;99.90
7648;DHT22;3866;48.020;11.720;2022-07-23T07:37:34;21.50;99.90
7648;DHT22;3866;48.020;11.720;2022-07-23T07:40:03;21.50;99.90
7648;DHT22;3866;48.020;11.720;2022-07-23T07:42:30;21.50;99.90
7648;DHT22;3866;48.020;11.720;2022-07-23T07:44:58;21.60;99.90
7648;DHT22;3866;48.020;11.720;2022-07-23T07:47:25;21.60;99.90
7648;DHT22;3866;48.020;11.720;2022-07-23T07:49:52;21.60;99.90
7648;DHT22;3866;48.020;11.720;2022-07-23T07:52:19;21.70;99.90
7648;DHT22;3866;48.020;11.720;2022-07-23T07:54:46;21.60;99.90
7648;DHT22;3866;48.020;11.720;2022-07-23T07:57:14;21.60;99.90
7648;DHT22;3866;48.020;11.720;2022-07-23T07:59:41;21.50;99.90
7648;DHT22;3866;48.020;11.720;2022-07-23T08:02:08;21.60;99.90
7648;DHT22;3866;48.020;11.720;2022-07-23T08:04:35;21.60;99.90
7648;DHT22;3866;48.020;11.720;2022-07-23T08:07:02;21.60;99.90
7648;DHT22;3866;48.020;11.720;2022-07-23T08:09:29;21.70;99.90
7648;DHT22;3866;48.020;11.720;2022-07-23T08:11:55;21.70;99.90
7648;DHT22;3866;48.020;11.720;2022-07-23T08:14:24;21.70;99.90
7648;DHT22;3866;48.020;11.720;2022-07-23T08:16:51;21.60;99.90
7648;DHT22;3866;48.020;11.720;2022-07-23T08:19:17;21.50;99.90
7648;DHT22;3866;48.020;11.720;2022-07-23T08:21:44;21.50;99.90
7648;DHT22;3866;48.020;11.720;2022-07-23T08:24:11;21.50;99.90
7648;DHT22;3866;48.020;11.720;2022-07-23T08:26:38;21.60;99.90
7648;DHT22;3866;48.020;11.720;2022-07-23T08:29:05;21.70;99.90
7648;DHT22;3866;48.020;11.720;2022-07-23T08:31:33;21.70;99.90
7648;DHT22;3866;48.020;11.720;2022-07-23T08:34:00;21.80;99.90
7648;DHT22;3866;48.020;11.720;2022-07-23T08:36:28;21.90;99.90
7648;DHT22;3866;48.020;11.720;2022-07-23T08:38:57;22.10;99.90
7648;DHT22;3866;48.020;11.720;2022-07-23T08:41:24;22.10;99.90
7648;DHT22;3866;48.020;11.720;2022-07-23T08:43:51;22.10;99.90
7648;DHT22;3866;48.020;11.720;2022-07-23T08:46:19;22.10;99.90
7648;DHT22;3866;48.020;11.720;2022-07-23T08:48:49;22.20;99.90
7648;DHT22;3866;48.020;11.720;2022-07-23T08:51:17;22.30;99.90
7648;DHT22;3866;48.020;11.720;2022-07-23T08:53:44;22.30;99.90
7648;DHT22;3866;48.020;11.720;2022-07-23T08:56:12;22.50;99.90
7648;DHT22;3866;48.020;11.720;2022-07-23T08:58:39;22.50;99.90
7648;DHT22;3866;48.020;11.720;2022-07-23T09:01:06;22.60;99.90
7648;DHT22;3866;48.020;11.720;2022-07-23T09:03:35;22.50;99.90
7648;DHT22;3866;48.020;11.720;2022-07-23T09:06:05;22.40;99.90
7648;DHT22;3866;48.020;11.720;2022-07-23T09:08:37;22.40;99.90
7648;DHT22;3866;48.020;11.720;2022-07-23T09:11:05;22.50;99.90
7648;DHT22;3866;48.020;11.720;2022-07-23T09:13:36;22.40;99.90
7648;DHT22;3866;48.020;11.720;2022-07-23T09:16:06;22.40;99.90
7648;DHT22;3866;48.020;11.720;2022-07-23T09:18:43;22.50;99.90
7648;DHT22;3866;48.020;11.720;2022-07-23T09:21:23;22.50;99.90
7648;DHT22;3866;48.020;11.720;2022-07-23T09:23:54;22.50;99.90
7648;DHT22;3866;48.020;11.720;2022-07-23T09:26:23;22.60;99.90
7648;DHT22;3866;48.020;11.720;2022-07-23T09:28:53;22.60;99.90
7648;DHT22;3866;48.020;11.720;2022-07-23T09:31:21;22.50;99.90
7648;DHT22;3866;48.020;11.720;2022-07-23T09:33:48;22.50;99.90
7648;DHT22;3866;48.020;11.720;2022-07-23T09:36:15;22.50;99.90
7648;DHT22;3866;48.020;11.720;2022-07-23T09:38:50;22.60;99.90
7648;DHT22;3866;48.020;11.720;2022-07-23T09:41:17;22.60;99.90
7648;DHT22;3866;48.020;11.720;2022-07-23T09:43:44;22.50;99.90
7648;DHT22;3866;48.020;11.720;2022-07-23T09:46:21;22.50;99.90
7648;DHT22;3866;48.020;11.720;2022-07-23T09:48:49;22.70;99.90
7648;DHT22;3866;48.020;11.720;2022-07-23T09:51:17;22.90;99.90
7648;DHT22;3866;48.020;11.720;2022-07-23T09:53:46;23.00;99.90
7648;DHT22;3866;48.020;11.720;2022-07-23T09:56:14;23.30;99.90
7648;DHT22;3866;48.020;11.720;2022-07-23T09:58:42;23.30;99.90
7648;DHT22;3866;48.020;11.720;2022-07-23T10:01:13;23.50;99.90
7648;DHT22;3866;48.020;11.720;2022-07-23T10:03:41;23.70;99.90
7648;DHT22;3866;48.020;11.720;2022-07-23T10:06:08;24.00;99.90
7648;DHT22;3866;48.020;11.720;2022-07-23T10:08:36;24.20;99.90
7648;DHT22;3866;48.020;11.720;2022-07-23T10:11:07;24.30;99.90
7648;DHT22;3866;48.020;11.720;2022-07-23T10:13:37;24.50;99.90
7648;DHT22;3866;48.020;11.720;2022-07-23T10:16:21;24.20;99.90
7648;DHT22;3866;48.020;11.720;2022-07-23T10:18:49;24.20;99.90
7648;DHT22;3866;48.020;11.720;2022-07-23T10:21:21;24.40;99.90
7648;DHT22;3866;48.020;11.720;2022-07-23T10:24:01;24.60;99.90
7648;DHT22;3866;48.020;11.720;2022-07-23T10:26:36;25.00;99.90
7648;DHT22;3866;48.020;11.720;2022-07-23T10:29:15;25.40;99.90
7648;DHT22;3866;48.020;11.720;2022-07-23T10:31:52;25.60;99.90
7648;DHT22;3866;48.020;11.720;2022-07-23T10:34:29;25.80;99.90
7648;DHT22;3866;48.020;11.720;2022-07-23T10:37:01;25.90;99.90
7648;DHT22;3866;48.020;11.720;2022-07-23T10:39:32;26.00;99.90
7648;DHT22;3866;48.020;11.720;2022-07-23T10:42:10;25.90;99.90
7648;DHT22;3866;48.020;11.720;2022-07-23T10:44:43;25.70;99.90
7648;DHT22;3866;48.020;11.720;2022-07-23T10:47:12;25.60;99.90
7648;DHT22;3866;48.020;11.720;2022-07-23T10:50:22;25.60;99.90
7648;DHT22;3866;48.020;11.720;2022-07-23T10:53:09;25.60;99.90
7648;DHT22;3866;48.020;11.720;2022-07-23T10:55:43;25.30;99.90
7648;DHT22;3866;48.020;11.720;2022-07-23T10:58:10;25.10;99.90
7648;DHT22;3866;48.020;11.720;2022-07-23T11:00:39;25.10;99.90
7648;DHT22;3866;48.020;11.720;2022-07-23T11:03:32;25.00;99.90
7648;DHT22;3866;48.020;11.720;2022-07-23T11:06:03;24.90;99.90
7648;DHT22;3866;48.020;11.720;2022-07-23T11:08:31;24.80;99.90
7648;DHT22;3866;48.020;11.720;2022-07-23T11:11:11;24.70;99.90
7648;DHT22;3866;48.020;11.720;2022-07-23T11:13:46;24.70;99.90
7648;DHT22;3866;48.020;11.720;2022-07-23T11:16:22;24.70;99.90
7648;DHT22;3866;48.020;11.720;2022-07-23T11:19:03;24.80;99.90
7648;DHT22;3866;48.020;11.720;2022-07-23T11:21:45;24.80;99.90
7648;DHT22;3866;48.020;11.720;2022-07-23T11:24:15;24.80;99.90
7648;DHT22;3866;48.020;11.720;2022-07-23T11:26:48;24.70;99.90
7648;DHT22;3866;48.020;11.720;2022-07-23T11:29:44;24.60;99.90
7648;DHT22;3866;48.020;11.720;2022-07-23T11:32:40;24.50;99.90
7648;DHT22;3866;48.020;11.720;2022-07-23T11:35:23;24.50;99.90
7648;DHT22;3866;48.020;11.720;2022-07-23T11:37:51;24.60;99.90
7648;DHT22;3866;48.020;11.720;2022-07-23T11:40:24;24.70;99.90
7648;DHT22;3866;48.020;11.720;2022-07-23T11:42:53;24.60;99.90
7648;DHT22;3866;48.020;11.720;2022-07-23T11:45:21;24.60;99.90
7648;DHT22;3866;48.020;11.720;2022-07-23T11:47:50;24.60;99.90
7648;DHT22;3866;48.020;11.720;2022-07-23T11:50:17;24.40;99.90
7648;DHT22;3866;48.020;11.720;2022-07-23T11:52:44;24.40;99.90
7648;DHT22;3866;48.020;11.720;2022-07-23T11:55:11;24.50;99.90
7648;DHT22;3866;48.020;11.720;2022-07-23T11:57:42;24.40;99.90
7648;DHT22;3866;48.020;11.720;2022-07-23T12:00:11;24.60;99.90
7648;DHT22;3866;48.020;11.720;2022-07-23T12:02:39;24.60;99.90
7648;DHT22;3866;48.020;11.720;2022-07-23T12:05:11;24.70;99.90
7648;DHT22;3866;48.020;11.720;2022-07-23T12:07:40;24.40;99.90
7648;DHT22;3866;48.020;11.720;2022-07-23T12:10:12;24.30;99.90
7648;DHT22;3866;48.020;11.720;2022-07-23T12:12:41;24.40;99.90
7648;DHT22;3866;48.020;11.720;2022-07-23T12:15:09;24.30;99.90
7648;DHT22;3866;48.020;11.720;2022-07-23T12:17:38;24.30;99.90
7648;DHT22;3866;48.020;11.720;2022-07-23T12:20:09;24.40;99.90
7648;DHT22;3866;48.020;11.720;2022-07-23T12:22:38;24.30;99.90
7648;DHT22;3866;48.020;11.720;2022-07-23T12:25:08;24.30;99.90
7648;DHT22;3866;48.020;11.720;2022-07-23T12:27:36;24.20;99.90
7648;DHT22;3866;48.020;11.720;2022-07-23T12:30:22;24.20;99.90
7648;DHT22;3866;48.020;11.720;2022-07-23T12:32:51;24.20;99.90
7648;DHT22;3866;48.020;11.720;2022-07-23T12:35:20;24.10;99.90
7648;DHT22;3866;48.020;11.720;2022-07-23T12:37:50;24.10;99.90
7648;DHT22;3866;48.020;11.720;2022-07-23T12:40:32;24.00;99.90
7648;DHT22;3866;48.020;11.720;2022-07-23T12:43:02;24.00;99.90
7648;DHT22;3866;48.020;11.720;2022-07-23T12:45:42;24.00;99.90
7648;DHT22;3866;48.020;11.720;2022-07-23T12:48:16;24.20;99.90
7648;DHT22;3866;48.020;11.720;2022-07-23T12:50:58;24.20;99.90
7648;DHT22;3866;48.020;11.720;2022-07-23T12:53:28;24.20;99.90
7648;DHT22;3866;48.020;11.720;2022-07-23T12:56:04;23.90;99.90
7648;DHT22;3866;48.020;11.720;2022-07-23T12:58:43;23.90;99.90
7648;DHT22;3866;48.020;11.720;2022-07-23T13:01:10;23.90;99.90
7648;DHT22;3866;48.020;11.720;2022-07-23T13:04:00;23.90;99.90
7648;DHT22;3866;48.020;11.720;2022-07-23T13:06:29;23.90;99.90
7648;DHT22;3866;48.020;11.720;2022-07-23T13:08:56;23.90;99.90
7648;DHT22;3866;48.020;11.720;2022-07-23T13:11:23;24.00;99.90
7648;DHT22;3866;48.020;11.720;2022-07-23T13:13:50;24.20;99.90
7648;DHT22;3866;48.020;11.720;2022-07-23T13:16:17;24.10;99.90
7648;DHT22;3866;48.020;11.720;2022-07-23T13:18:44;24.00;99.90
7648;DHT22;3866;48.020;11.720;2022-07-23T13:21:11;23.90;99.90
7648;DHT22;3866;48.020;11.720;2022-07-23T13:23:40;23.90;99.90
7648;DHT22;3866;48.020;11.720;2022-07-23T13:26:06;23.80;99.90
7648;DHT22;3866;48.020;11.720;2022-07-23T13:28:33;23.90;99.90
7648;DHT22;3866;48.020;11.720;2022-07-23T13:31:00;24.20;99.90
7648;DHT22;3866;48.020;11.720;2022-07-23T13:33:28;24.20;99.90
7648;DHT22;3866;48.020;11.720;2022-07-23T13:35:55;24.20;99.90
7648;DHT22;3866;48.020;11.720;2022-07-23T13:38:22;24.20;99.90
7648;DHT22;3866;48.020;11.720;2022-07-23T13:40:52;24.00;99.90
7648;DHT22;3866;48.020;11.720;2022-07-23T13:43:21;24.00;99.90
7648;DHT22;3866;48.020;11.720;2022-07-23T13:45:49;23.90;99.90
7648;DHT22;3866;48.020;11.720;2022-07-23T13:48:16;23.90;99.90
7648;DHT22;3866;48.020;11.720;2022-07-23T13:50:44;23.80;99.90
7648;DHT22;3866;48.020;11.720;2022-07-23T13:53:13;23.70;99.90
7648;DHT22;3866;48.020;11.720;2022-07-23T13:55:40;23.70;99.90
7648;DHT22;3866;48.020;11.720;2022-07-23T13:58:09;23.60;99.90
7648;DHT22;3866;48.020;11.720;2022-07-23T14:00:38;23.50;99.90
7648;DHT22;3866;48.020;11.720;2022-07-23T14:03:06;23.40;99.90
7648;DHT22;3866;48.020;11.720;2022-07-23T14:05:33;23.40;99.90
7648;DHT22;3866;48.020;11.720;2022-07-23T14:08:00;23.40;99.90
7648;DHT22;3866;48.020;11.720;2022-07-23T14:10:27;23.50;99.90
7648;DHT22;3866;48.020;11.720;2022-07-23T14:12:54;23.40;99.90
7648;DHT22;3866;48.020;11.720;2022-07-23T14:15:25;23.70;99.90
7648;DHT22;3866;48.020;11.720;2022-07-23T14:17:53;23.70;99.90
7648;DHT22;3866;48.020;11.720;2022-07-23T14:20:21;23.50;99.90
7648;DHT22;3866;48.020;11.720;2022-07-23T14:22:48;23.30;99.90
7648;DHT22;3866;48.020;11.720;2022-07-23T14:25:16;23.00;99.90
7648;DHT22;3866;48.020;11.720;2022-07-23T14:27:43;22.90;99.90
7648;DHT22;3866;48.020;11.720;2022-07-23T14:30:12;22.60;99.90
7648;DHT22;3866;48.020;11.720;2022-07-23T14:32:42;22.40;99.90
7648;DHT22;3866;48.020;11.720;2022-07-23T14:35:09;22.30;99.90
7648;DHT22;3866;48.020;11.720;2022-07-23T14:37:36;22.40;99.90
7648;DHT22;3866;48.020;11.720;2022-07-23T14:40:03;22.20;99.90
7648;DHT22;3866;48.020;11.720;2022-07-23T14:42:30;22.30;99.90
7648;DHT22;3866;48.020;11.720;2022-07-23T14:44:57;22.40;99.90
7648;DHT22;3866;48.020;11.720;2022-07-23T14:47:24;22.50;99.90
7648;DHT22;3866;48.020;11.720;2022-07-23T14:49:52;22.50;99.90
7648;DHT22;3866;48.020;11.720;2022-07-23T14:52:19;22.50;99.90
7648;DHT22;3866;48.020;11.720;2022-07-23T14:54:46;22.50;99.90
7648;DHT22;3866;48.020;11.720;2022-07-23T14:57:13;22.50;99.90
7648;DHT22;3866;48.020;11.720;2022-07-23T14:59:40;22.50;99.90
7648;DHT22;3866;48.020;11.720;2022-07-23T15:02:08;22.60;99.90
7648;DHT22;3866;48.020;11.720;2022-07-23T15:04:35;22.90;99.90
7648;DHT22;3866;48.020;11.720;2022-07-23T15:07:04;23.10;99.90
7648;DHT22;3866;48.020;11.720;2022-07-23T15:09:31;23.40;99.90
7648;DHT22;3866;48.020;11.720;2022-07-23T15:11:58;23.70;99.90
7648;DHT22;3866;48.020;11.720;2022-07-23T15:14:25;24.10;99.90
7648;DHT22;3866;48.020;11.720;2022-07-23T15:16:52;24.10;99.90
7648;DHT22;3866;48.020;11.720;2022-07-23T15:19:19;24.00;99.90
7648;DHT22;3866;48.020;11.720;2022-07-23T15:21:46;24.00;99.90
7648;DHT22;3866;48.020;11.720;2022-07-23T15:24:14;24.30;99.90
7648;DHT22;3866;48.020;11.720;2022-07-23T15:26:41;24.20;99.90
7648;DHT22;3866;48.020;11.720;2022-07-23T15:29:08;24.20;99.90
7648;DHT22;3866;48.020;11.720;2022-07-23T15:31:35;24.30;99.90
7648;DHT22;3866;48.020;11.720;2022-07-23T15:34:02;24.30;99.90
7648;DHT22;3866;48.020;11.720;2022-07-23T15:36:29;24.30;99.90
7648;DHT22;3866;48.020;11.720;2022-07-23T15:38:56;24.30;99.90
7648;DHT22;3866;48.020;11.720;2022-07-23T15:41:24;24.20;99.90
7648;DHT22;3866;48.020;11.720;2022-07-23T15:43:51;24.30;99.90
7648;DHT22;3866;48.020;11.720;2022-07-23T15:46:20;24.10;99.90
7648;DHT22;3866;48.020;11.720;2022-07-23T15:48:48;24.20;99.90
7648;DHT22;3866;48.020;11.720;2022-07-23T15:51:16;24.10;99.90
7648;DHT22;3866;48.020;11.720;2022-07-23T15:53:43;24.30;99.90